Time;durP1;ratioP1;P1;durP2;ratioP2;P2;SDS_P1;SDS_P2;PMS_P1;PMS_P2;Temp;Humidity;BMP_temperature;BMP_pressure;BME280_temperature;BME280_humidity;BME280_pressure;Samples;Min_cycle;Max_cycle;Signal;HPM_P1;HPM_P2
2023/06/16 00:01:04;;;;;;;4.30;2.70;;;15.10;99.90;;;;;;6110794;23;20009;-68
2023/06/16 00:03:33;;;;;;;8.55;2.67;;;15.10;99.90;;;;;;6104244;23;20010;-69
2023/06/16 00:06:12;;;;;;;3.63;2.72;;;15.00;99.90;;;;;;6111436;23;20025;-69
2023/06/16 00:08:39;;;;;;;4.57;2.78;;;15.10;99.90;;;;;;6102511;23;20010;-69
2023/06/16 00:11:05;;;;;;;3.33;3.03;;;15.00;99.90;;;;;;6111756;23;20073;-68
2023/06/16 00:13:30;;;;;;;2.72;2.40;;;15.10;99.90;;;;;;6110297;23;20085;-69
2023/06/16 00:15:56;;;;;;;4.80;2.67;;;15.10;99.90;;;;;;6112227;23;20009;-69
2023/06/16 00:18:23;;;;;;;4.38;3.35;;;15.00;99.90;;;;;;6111290;23;20772;-69
2023/06/16 00:20:51;;;;;;;2.83;2.50;;;15.00;99.90;;;;;;6106350;23;20081;-69
2023/06/16 00:23:20;;;;;;;3.00;2.70;;;15.00;99.90;;;;;;6100370;23;20002;-69
2023/06/16 00:25:45;;;;;;;3.20;2.50;;;14.90;99.90;;;;;;6107036;23;20499;-69
2023/06/16 00:28:11;;;;;;;3.38;2.80;;;14.90;99.90;;;;;;6110060;23;20344;-69
2023/06/16 00:30:36;;;;;;;2.88;2.47;;;15.00;99.90;;;;;;6113142;23;20641;-70
2023/06/16 00:33:02;;;;;;;3.10;2.80;;;14.90;99.90;;;;;;6104780;23;20006;-70
2023/06/16 00:35:28;;;;;;;2.55;2.35;;;14.90;99.90;;;;;;6111762;23;20047;-69
2023/06/16 00:37:53;;;;;;;3.10;2.50;;;14.90;99.90;;;;;;6107937;23;20013;-69
2023/06/16 00:40:19;;;;;;;2.65;2.28;;;14.90;99.90;;;;;;6109911;23;20459;-69
2023/06/16 00:42:45;;;;;;;3.75;2.67;;;14.90;99.90;;;;;;6104983;23;20021;-69
2023/06/16 00:45:10;;;;;;;4.57;2.50;;;15.00;99.90;;;;;;6110675;23;20013;-69
2023/06/16 00:47:36;;;;;;;2.92;2.60;;;15.00;99.90;;;;;;6110058;23;20452;-69
2023/06/16 00:50:03;;;;;;;2.90;2.70;;;15.10;99.90;;;;;;6108776;23;20798;-69
2023/06/16 00:52:34;;;;;;;3.90;3.38;;;15.10;99.90;;;;;;6106692;23;20356;-69
2023/06/16 00:55:01;;;;;;;7.63;3.05;;;15.10;99.90;;;;;;6107812;23;20014;-69
2023/06/16 00:57:26;;;;;;;5.22;2.88;;;15.00;99.90;;;;;;6107271;23;20353;-69
2023/06/16 00:59:52;;;;;;;3.88;2.75;;;15.00;99.90;;;;;;6109886;23;20053;-69
2023/06/16 01:02:18;;;;;;;4.45;2.75;;;14.80;99.90;;;;;;6101518;23;20094;-70
2023/06/16 01:04:46;;;;;;;3.30;3.00;;;14.80;99.90;;;;;;6101476;23;20016;-69
2023/06/16 01:07:20;;;;;;;4.18;3.03;;;14.70;99.90;;;;;;6098484;23;20002;-70
2023/06/16 01:10:06;;;;;;;3.35;2.80;;;14.60;99.90;;;;;;6099992;23;20006;-70
2023/06/16 01:13:07;;;;;;;4.78;3.10;;;14.70;99.90;;;;;;6105279;23;20025;-70
2023/06/16 01:15:34;;;;;;;3.67;2.90;;;14.70;99.90;;;;;;6107482;23;20530;-69
2023/06/16 01:18:01;;;;;;;3.85;3.47;;;14.70;99.90;;;;;;6104156;23;20366;-70
2023/06/16 01:20:48;;;;;;;4.47;3.42;;;14.70;99.90;;;;;;6111194;23;20157;-69
2023/06/16 01:23:40;;;;;;;3.67;3.28;;;14.70;99.90;;;;;;6106863;23;20837;-67
2023/06/16 01:26:09;;;;;;;4.22;2.85;;;14.80;99.90;;;;;;6109713;23;20010;-67
2023/06/16 01:28:39;;;;;;;4.32;3.25;;;14.80;99.90;;;;;;6111515;23;20014;-67
2023/06/16 01:31:08;;;;;;;4.60;3.42;;;14.80;99.90;;;;;;6112701;23;20028;-67
2023/06/16 01:33:36;;;;;;;3.58;3.28;;;14.80;99.90;;;;;;6113116;23;20014;-66
2023/06/16 01:36:04;;;;;;;4.32;3.55;;;14.80;99.90;;;;;;6113639;23;20025;-66
2023/06/16 01:38:30;;;;;;;3.80;3.08;;;14.80;99.90;;;;;;6110451;23;20639;-67
2023/06/16 01:40:58;;;;;;;3.22;2.92;;;14.80;99.90;;;;;;6112487;23;20078;-67
2023/06/16 01:43:25;;;;;;;5.40;3.53;;;14.80;99.90;;;;;;6109967;23;20002;-66
2023/06/16 01:45:51;;;;;;;3.88;3.58;;;14.80;99.90;;;;;;6110938;23;20017;-66
2023/06/16 01:48:20;;;;;;;3.88;3.50;;;14.90;99.90;;;;;;6108501;23;20459;-66
2023/06/16 01:50:46;;;;;;;3.55;3.25;;;14.90;99.90;;;;;;6109969;23;20021;-66
2023/06/16 01:53:12;;;;;;;6.55;3.50;;;15.00;99.90;;;;;;6108860;23;20006;-66
2023/06/16 01:55:37;;;;;;;5.57;3.53;;;15.10;99.90;;;;;;6108834;23;20016;-65
2023/06/16 01:58:05;;;;;;;4.95;3.50;;;15.10;99.90;;;;;;6109463;23;20006;-66
2023/06/16 02:00:35;;;;;;;6.43;3.08;;;15.10;99.90;;;;;;6108122;23;20020;-66
2023/06/16 02:03:11;;;;;;;3.78;3.33;;;15.00;99.90;;;;;;6112297;23;20060;-66
2023/06/16 02:05:43;;;;;;;5.78;3.35;;;14.80;99.90;;;;;;6111911;23;20653;-66
2023/06/16 02:08:12;;;;;;;5.63;3.20;;;14.80;99.90;;;;;;6112910;23;20049;-66
2023/06/16 02:10:38;;;;;;;5.80;3.20;;;14.80;99.90;;;;;;6111547;23;20030;-66
2023/06/16 02:13:04;;;;;;;6.43;3.50;;;14.80;99.90;;;;;;6104580;23;20002;-66
2023/06/16 02:15:32;;;;;;;4.32;3.08;;;14.80;99.90;;;;;;6110396;23;20014;-66
2023/06/16 02:17:58;;;;;;;3.78;3.40;;;14.80;99.90;;;;;;6109652;23;20080;-65
2023/06/16 02:20:26;;;;;;;3.58;3.28;;;14.80;99.90;;;;;;6108308;23;20018;-65
2023/06/16 02:22:53;;;;;;;3.50;3.20;;;14.80;99.90;;;;;;6109213;23;20006;-66
2023/06/16 02:25:18;;;;;;;3.92;3.53;;;14.90;99.90;;;;;;6107783;23;20085;-66
2023/06/16 02:27:44;;;;;;;5.13;3.67;;;15.00;99.90;;;;;;6106973;23;20495;-66
2023/06/16 02:30:11;;;;;;;4.55;3.20;;;14.90;99.90;;;;;;6107253;23;20006;-66
2023/06/16 02:32:37;;;;;;;5.00;3.58;;;14.90;99.90;;;;;;6108708;23;20332;-66
2023/06/16 02:35:05;;;;;;;3.60;3.13;;;15.00;99.90;;;;;;6109935;23;20006;-66
2023/06/16 02:37:30;;;;;;;3.85;3.45;;;15.00;99.90;;;;;;6109555;23;20064;-67
2023/06/16 02:39:56;;;;;;;4.18;3.58;;;15.00;99.90;;;;;;6108088;23;20009;-66
2023/06/16 02:42:22;;;;;;;5.10;3.55;;;15.00;99.90;;;;;;6111526;23;20014;-65
2023/06/16 02:44:47;;;;;;;6.65;3.78;;;15.00;99.90;;;;;;6108076;23;20005;-67
2023/06/16 02:47:13;;;;;;;3.95;3.35;;;14.90;99.90;;;;;;6108669;23;20045;-66
2023/06/16 02:49:42;;;;;;;5.15;3.40;;;15.00;99.90;;;;;;6112554;23;20094;-66
2023/06/16 02:52:11;;;;;;;5.00;3.50;;;15.00;99.90;;;;;;6111626;23;20006;-66
2023/06/16 02:54:38;;;;;;;4.30;3.80;;;14.90;99.90;;;;;;6111563;23;20017;-66
2023/06/16 02:57:05;;;;;;;3.47;3.17;;;15.00;99.90;;;;;;6109717;23;20040;-66
2023/06/16 02:59:31;;;;;;;4.45;3.72;;;15.00;99.90;;;;;;6112693;23;20010;-65
2023/06/16 03:01:56;;;;;;;4.60;3.53;;;15.00;99.90;;;;;;6109487;23;20020;-67
2023/06/16 03:04:22;;;;;;;10.52;3.42;;;15.00;99.90;;;;;;6112759;23;20030;-67
2023/06/16 03:06:49;;;;;;;5.30;3.58;;;15.00;99.90;;;;;;6110342;23;20040;-67
2023/06/16 03:09:16;;;;;;;3.95;3.60;;;15.00;99.90;;;;;;6111480;23;20002;-67
2023/06/16 03:11:41;;;;;;;4.18;3.75;;;15.00;99.90;;;;;;6110097;23;20006;-66
2023/06/16 03:14:07;;;;;;;3.88;3.58;;;15.10;99.90;;;;;;6110441;23;20706;-66
2023/06/16 03:16:32;;;;;;;4.15;3.75;;;15.00;99.90;;;;;;6110561;23;20002;-67
2023/06/16 03:18:58;;;;;;;5.03;3.60;;;15.00;99.90;;;;;;6107711;23;20336;-66
2023/06/16 03:21:24;;;;;;;5.88;3.85;;;15.00;99.90;;;;;;6110021;23;20024;-66
2023/06/16 03:23:50;;;;;;;7.15;3.60;;;15.10;99.90;;;;;;6112996;23;20001;-66
2023/06/16 03:26:16;;;;;;;3.92;3.22;;;15.10;99.90;;;;;;6110447;23;20014;-67
2023/06/16 03:28:42;;;;;;;4.47;3.85;;;15.10;99.90;;;;;;6111769;23;20014;-66
2023/06/16 03:31:08;;;;;;;4.28;3.42;;;15.10;99.90;;;;;;6110733;23;20006;-66
2023/06/16 03:33:34;;;;;;;8.32;4.10;;;15.10;99.90;;;;;;6112912;23;20468;-66
2023/06/16 03:35:59;;;;;;;3.53;3.22;;;15.20;99.90;;;;;;6110103;23;20064;-66
2023/06/16 03:38:25;;;;;;;6.10;3.50;;;15.20;99.90;;;;;;6112291;23;20800;-66
2023/06/16 03:40:51;;;;;;;3.85;3.30;;;15.20;99.90;;;;;;6112075;23;20024;-67
2023/06/16 03:43:16;;;;;;;6.60;3.63;;;15.20;99.90;;;;;;6110461;23;20013;-66
2023/06/16 03:45:42;;;;;;;3.58;3.22;;;15.30;99.90;;;;;;6112534;23;20022;-66
2023/06/16 03:48:07;;;;;;;5.65;3.28;;;15.30;99.90;;;;;;6111307;23;20376;-67
2023/06/16 03:50:33;;;;;;;6.88;3.30;;;15.40;99.90;;;;;;6111979;23;20009;-67
2023/06/16 03:52:59;;;;;;;4.90;3.33;;;15.40;99.90;;;;;;6110622;23;20076;-67
2023/06/16 03:55:24;;;;;;;3.97;3.50;;;15.40;99.90;;;;;;6109676;23;20097;-66
2023/06/16 03:57:50;;;;;;;4.13;3.53;;;15.50;99.90;;;;;;6110970;23;20041;-67
2023/06/16 04:00:17;;;;;;;6.28;3.60;;;15.50;99.90;;;;;;6111358;23;20037;-67
2023/06/16 04:02:42;;;;;;;4.40;3.03;;;15.50;99.90;;;;;;6109174;23;20396;-67
2023/06/16 04:05:09;;;;;;;3.05;2.70;;;15.50;99.90;;;;;;6110163;23;20448;-67
2023/06/16 04:07:35;;;;;;;4.90;3.85;;;15.50;99.90;;;;;;6107614;23;19998;-66
2023/06/16 04:10:01;;;;;;;4.80;3.50;;;15.50;99.90;;;;;;6110288;23;20009;-67
2023/06/16 04:12:27;;;;;;;3.70;3.25;;;15.60;99.90;;;;;;6110959;23;20006;-67
2023/06/16 04:14:53;;;;;;;5.82;3.10;;;15.60;99.90;;;;;;6112682;23;20481;-67
2023/06/16 04:17:18;;;;;;;3.90;3.50;;;15.60;99.90;;;;;;6110779;23;20407;-67
2023/06/16 04:19:46;;;;;;;4.93;4.10;;;15.70;99.90;;;;;;6107306;23;20510;-68
2023/06/16 04:22:12;;;;;;;5.30;3.20;;;15.70;99.90;;;;;;6108857;23;20068;-67
2023/06/16 04:24:37;;;;;;;5.45;3.28;;;15.80;99.90;;;;;;6104341;23;20339;-67
2023/06/16 04:27:03;;;;;;;4.70;3.90;;;15.80;99.90;;;;;;6107979;23;20006;-67
2023/06/16 04:29:29;;;;;;;3.47;3.10;;;15.80;99.90;;;;;;6109285;23;20286;-67
2023/06/16 04:31:59;;;;;;;3.67;3.17;;;15.80;99.90;;;;;;6112029;23;20032;-67
2023/06/16 04:34:25;;;;;;;3.53;3.22;;;15.70;99.90;;;;;;6109016;23;20013;-67
2023/06/16 04:36:51;;;;;;;16.58;3.60;;;15.80;99.90;;;;;;6109483;23;20002;-67
2023/06/16 04:39:16;;;;;;;3.42;3.13;;;15.80;99.90;;;;;;6109156;23;20450;-67
2023/06/16 04:41:42;;;;;;;7.32;3.47;;;15.90;99.90;;;;;;6108216;23;20046;-67
2023/06/16 04:44:08;;;;;;;6.28;3.30;;;16.00;99.90;;;;;;6110133;23;20006;-66
2023/06/16 04:46:34;;;;;;;3.42;3.10;;;16.00;99.90;;;;;;6111132;23;20482;-67
2023/06/16 04:49:00;;;;;;;4.53;3.58;;;16.10;99.90;;;;;;6109875;23;20010;-67
2023/06/16 04:51:26;;;;;;;4.20;3.42;;;16.10;99.90;;;;;;6106057;23;20656;-66
2023/06/16 04:53:53;;;;;;;11.55;3.47;;;16.20;99.90;;;;;;6107039;23;20005;-66
2023/06/16 04:56:19;;;;;;;3.55;3.15;;;16.30;99.90;;;;;;6108502;23;20006;-66
2023/06/16 04:58:44;;;;;;;14.10;4.75;;;16.30;99.90;;;;;;6107781;23;20466;-66
2023/06/16 05:01:11;;;;;;;8.90;4.20;;;16.40;99.90;;;;;;6109756;23;20045;-66
2023/06/16 05:03:37;;;;;;;7.43;3.58;;;16.50;99.90;;;;;;6108784;23;20081;-66
2023/06/16 05:06:03;;;;;;;4.80;3.55;;;16.50;99.90;;;;;;6108070;23;20013;-66
2023/06/16 05:08:29;;;;;;;8.07;3.47;;;16.60;99.90;;;;;;6101963;23;20427;-66
2023/06/16 05:10:54;;;;;;;4.53;3.20;;;16.70;99.90;;;;;;6107261;23;20064;-66
2023/06/16 05:13:20;;;;;;;8.70;3.40;;;16.80;99.90;;;;;;6106510;23;20783;-66
2023/06/16 05:15:46;;;;;;;5.45;3.20;;;16.90;99.90;;;;;;6108754;23;20014;-67
2023/06/16 05:18:12;;;;;;;5.68;3.33;;;17.00;99.90;;;;;;6109813;23;20025;-66
2023/06/16 05:20:37;;;;;;;5.20;3.30;;;17.10;99.90;;;;;;6106213;23;20018;-67
2023/06/16 05:23:03;;;;;;;4.63;3.55;;;17.20;99.90;;;;;;6106263;23;20002;-66
2023/06/16 05:25:30;;;;;;;9.07;3.60;;;17.20;99.90;;;;;;6106070;23;20006;-66
2023/06/16 05:27:55;;;;;;;8.18;4.00;;;17.30;99.90;;;;;;6104827;23;20006;-66
2023/06/16 05:30:21;;;;;;;4.70;3.53;;;17.30;99.90;;;;;;6107235;23;20006;-66
2023/06/16 05:32:47;;;;;;;5.50;3.40;;;17.40;99.90;;;;;;6106063;23;20313;-66
2023/06/16 05:35:12;;;;;;;4.22;3.40;;;17.50;99.90;;;;;;6103245;23;20647;-66
2023/06/16 05:37:38;;;;;;;4.97;3.40;;;17.60;99.90;;;;;;6105200;23;20002;-66
2023/06/16 05:40:04;;;;;;;5.25;4.05;;;17.70;99.90;;;;;;6110255;23;20014;-66
2023/06/16 05:42:30;;;;;;;3.65;3.35;;;17.80;99.90;;;;;;6113081;23;20014;-66
2023/06/16 05:44:56;;;;;;;3.95;3.22;;;17.90;99.90;;;;;;6112506;23;20085;-66
2023/06/16 05:47:21;;;;;;;5.30;3.15;;;17.90;99.90;;;;;;6111984;23;20013;-67
2023/06/16 05:49:47;;;;;;;6.50;3.45;;;18.00;99.90;;;;;;6112694;23;20013;-66
2023/06/16 05:52:13;;;;;;;4.30;3.22;;;18.00;99.90;;;;;;6111731;23;20088;-67
2023/06/16 05:54:38;;;;;;;4.97;3.10;;;18.20;99.90;;;;;;6113807;23;20012;-67
2023/06/16 05:57:04;;;;;;;4.10;3.28;;;18.30;99.90;;;;;;6114718;23;20369;-66
2023/06/16 05:59:30;;;;;;;5.72;3.30;;;18.40;99.90;;;;;;6114206;23;20009;-67
2023/06/16 06:01:56;;;;;;;5.35;3.75;;;18.50;99.90;;;;;;6111148;23;20014;-66
2023/06/16 06:04:30;;;;;;;3.58;3.28;;;18.60;99.90;;;;;;6113886;23;20012;-67
2023/06/16 06:06:56;;;;;;;3.65;3.25;;;18.70;99.90;;;;;;6113128;23;20041;-67
2023/06/16 06:09:22;;;;;;;4.78;3.10;;;18.90;99.90;;;;;;6112861;23;20007;-67
2023/06/16 06:11:48;;;;;;;7.53;3.63;;;19.00;99.90;;;;;;6114315;23;20017;-67
2023/06/16 06:14:14;;;;;;;3.08;2.70;;;19.10;99.90;;;;;;6113011;23;20332;-67
2023/06/16 06:16:40;;;;;;;5.35;3.35;;;19.20;99.90;;;;;;6114284;23;20005;-67
2023/06/16 06:19:05;;;;;;;3.50;3.20;;;19.30;99.90;;;;;;6113274;23;20009;-67
2023/06/16 06:21:32;;;;;;;8.15;6.88;;;19.40;99.90;;;;;;6114913;23;20018;-67
2023/06/16 06:23:58;;;;;;;4.93;4.50;;;19.60;99.90;;;;;;6113215;23;20002;-66
2023/06/16 06:26:23;;;;;;;3.05;2.75;;;19.70;99.90;;;;;;6112936;23;20120;-66
2023/06/16 06:28:49;;;;;;;3.58;2.47;;;19.80;99.90;;;;;;6114195;23;20577;-66
2023/06/16 06:31:15;;;;;;;4.30;2.92;;;19.80;99.90;;;;;;6111515;23;20005;-66
2023/06/16 06:33:41;;;;;;;3.78;3.17;;;19.90;99.90;;;;;;6114442;23;20009;-66
2023/06/16 06:36:07;;;;;;;2.65;2.45;;;20.00;99.90;;;;;;6111696;23;20005;-66
2023/06/16 06:38:32;;;;;;;7.40;3.00;;;20.10;99.90;;;;;;6114013;23;20537;-66
2023/06/16 06:40:58;;;;;;;5.10;2.83;;;20.20;99.90;;;;;;6111948;23;20025;-67
2023/06/16 06:43:25;;;;;;;3.03;2.72;;;20.30;99.90;;;;;;6113137;23;20375;-67
2023/06/16 06:45:51;;;;;;;8.27;2.72;;;20.40;99.90;;;;;;6112267;23;20117;-67
2023/06/16 06:48:17;;;;;;;4.25;3.58;;;20.50;99.90;;;;;;6112312;23;20041;-67
2023/06/16 06:50:43;;;;;;;8.52;3.28;;;20.50;99.90;;;;;;6107722;23;20010;-67
2023/06/16 06:53:09;;;;;;;5.00;2.80;;;20.50;99.90;;;;;;6112156;23;20311;-67
2023/06/16 06:55:35;;;;;;;4.15;2.70;;;20.60;99.90;;;;;;6084091;23;20431;-67
2023/06/16 06:58:00;;;;;;;2.70;2.35;;;20.70;99.90;;;;;;6111984;23;20018;-67
2023/06/16 07:00:26;;;;;;;3.45;2.70;;;20.70;99.90;;;;;;6113509;23;20018;-67
2023/06/16 07:02:51;;;;;;;3.50;2.22;;;20.70;99.90;;;;;;6113003;23;19998;-66
2023/06/16 07:05:17;;;;;;;3.03;2.80;;;20.80;99.90;;;;;;6112959;23;20013;-67
2023/06/16 07:07:43;;;;;;;4.25;2.40;;;20.80;99.90;;;;;;6112742;23;20495;-67
2023/06/16 07:10:10;;;;;;;2.80;2.60;;;20.90;99.90;;;;;;6114607;23;20002;-66
2023/06/16 07:12:36;;;;;;;3.50;2.78;;;20.90;99.90;;;;;;6113114;23;20331;-66
2023/06/16 07:15:02;;;;;;;3.08;2.83;;;21.00;99.90;;;;;;6113742;23;20002;-67
2023/06/16 07:17:27;;;;;;;2.80;2.60;;;21.00;99.90;;;;;;6113579;23;20378;-67
2023/06/16 07:19:53;;;;;;;3.15;2.67;;;21.10;99.90;;;;;;6111343;23;20726;-66
2023/06/16 07:22:20;;;;;;;3.00;2.70;;;21.10;99.90;;;;;;6111925;23;20093;-67
2023/06/16 07:24:45;;;;;;;3.60;2.67;;;21.10;99.90;;;;;;6112545;23;20005;-67
2023/06/16 07:27:11;;;;;;;3.15;2.85;;;21.10;99.90;;;;;;6111720;23;20002;-67
2023/06/16 07:29:37;;;;;;;4.35;2.83;;;21.10;99.90;;;;;;6113328;23;20009;-67
2023/06/16 07:32:03;;;;;;;2.80;2.50;;;21.20;99.90;;;;;;6113918;23;20013;-67
2023/06/16 07:34:29;;;;;;;3.05;2.75;;;21.20;99.90;;;;;;6111741;23;20542;-67
2023/06/16 07:36:54;;;;;;;2.72;2.50;;;21.30;99.90;;;;;;6113355;23;20005;-67
2023/06/16 07:39:21;;;;;;;3.72;2.55;;;21.20;99.90;;;;;;6110570;23;20010;-67
2023/06/16 07:41:47;;;;;;;3.63;3.20;;;21.20;99.90;;;;;;6112200;23;20112;-67
2023/06/16 07:44:12;;;;;;;2.90;2.55;;;21.20;99.90;;;;;;6112838;23;20076;-67
2023/06/16 07:46:39;;;;;;;3.42;3.13;;;21.30;99.90;;;;;;6109191;23;20469;-67
2023/06/16 07:49:05;;;;;;;9.35;2.70;;;21.40;99.90;;;;;;6110459;23;20038;-67
2023/06/16 07:51:30;;;;;;;3.53;3.00;;;21.50;99.90;;;;;;6111608;23;20041;-67
2023/06/16 07:53:56;;;;;;;2.85;2.53;;;21.50;99.90;;;;;;6110628;23;20110;-67
2023/06/16 07:56:22;;;;;;;5.68;2.95;;;21.60;99.90;;;;;;6110856;23;20044;-67
2023/06/16 07:58:47;;;;;;;3.15;2.90;;;21.60;99.90;;;;;;6110873;23;20017;-67
2023/06/16 08:01:13;;;;;;;3.92;2.75;;;21.60;99.90;;;;;;6109532;23;20018;-67
2023/06/16 08:03:38;;;;;;;7.88;3.05;;;21.50;99.90;;;;;;6111433;23;20010;-73
2023/06/16 08:06:05;;;;;;;4.68;2.85;;;21.50;99.90;;;;;;6111850;23;20029;-73
2023/06/16 08:08:32;;;;;;;3.00;2.80;;;21.50;99.90;;;;;;6112476;23;20013;-74
2023/06/16 08:10:58;;;;;;;3.05;2.78;;;21.50;99.90;;;;;;6110579;23;20006;-73
2023/06/16 08:13:27;;;;;;;3.22;2.92;;;21.50;99.90;;;;;;6110387;23;20006;-65
2023/06/16 08:15:53;;;;;;;11.15;3.35;;;21.50;99.90;;;;;;6104872;23;20499;-65
2023/06/16 08:18:19;;;;;;;11.10;2.80;;;21.50;99.90;;;;;;6108305;23;20017;-65
2023/06/16 08:20:47;;;;;;;7.07;2.75;;;21.60;99.90;;;;;;6106816;23;20014;-65
2023/06/16 08:23:13;;;;;;;3.10;2.80;;;21.70;99.90;;;;;;6107669;23;19998;-64
2023/06/16 08:25:39;;;;;;;11.48;2.78;;;21.60;99.90;;;;;;6108628;23;20010;-65
2023/06/16 08:28:07;;;;;;;2.90;2.70;;;21.70;99.90;;;;;;6104869;23;20002;-65
2023/06/16 08:30:34;;;;;;;3.08;2.80;;;21.70;99.90;;;;;;6109741;23;20014;-64
2023/06/16 08:33:00;;;;;;;5.57;2.47;;;21.80;99.90;;;;;;6108149;23;20002;-73
2023/06/16 08:35:26;;;;;;;2.97;2.75;;;21.80;99.90;;;;;;6112627;23;20017;-74
2023/06/16 08:37:51;;;;;;;3.13;2.83;;;21.90;99.90;;;;;;6108285;23;20391;-74
2023/06/16 08:40:17;;;;;;;3.25;3.00;;;21.90;99.90;;;;;;6107957;23;20024;-73
2023/06/16 08:42:44;;;;;;;2.70;2.50;;;21.90;99.90;;;;;;6109305;23;20018;-74
2023/06/16 08:45:10;;;;;;;3.08;2.80;;;22.00;99.90;;;;;;6108168;23;20347;-74
2023/06/16 08:47:39;;;;;;;3.35;2.60;;;22.10;99.90;;;;;;6103592;23;20627;-75
2023/06/16 08:50:07;;;;;;;4.20;2.83;;;22.10;99.90;;;;;;6105380;23;20009;-65
2023/06/16 08:52:37;;;;;;;2.80;2.60;;;22.10;99.90;;;;;;6109999;23;20001;-64
2023/06/16 08:55:06;;;;;;;6.93;2.35;;;22.10;99.90;;;;;;6108858;23;20022;-64
2023/06/16 08:57:33;;;;;;;3.17;2.88;;;22.10;99.90;;;;;;6110848;23;20002;-64
2023/06/16 09:00:00;;;;;;;4.13;3.75;;;22.20;99.90;;;;;;6110114;23;20551;-65
2023/06/16 09:02:29;;;;;;;3.30;3.00;;;22.20;99.90;;;;;;6110275;23;20017;-65
2023/06/16 09:04:56;;;;;;;3.58;2.42;;;22.10;99.90;;;;;;6108778;23;20785;-65
2023/06/16 09:07:28;;;;;;;2.72;2.45;;;22.20;99.90;;;;;;6107852;23;20383;-66
2023/06/16 09:09:55;;;;;;;3.50;3.03;;;22.20;99.90;;;;;;6109320;23;20002;-66
2023/06/16 09:12:21;;;;;;;3.47;3.00;;;22.30;99.90;;;;;;6108363;23;20006;-66
2023/06/16 09:14:49;;;;;;;5.43;2.60;;;22.40;99.90;;;;;;6111084;23;20056;-66
2023/06/16 09:17:21;;;;;;;2.75;2.55;;;22.40;99.90;;;;;;6108579;23;20745;-66
2023/06/16 09:19:51;;;;;;;8.80;3.13;;;22.50;99.90;;;;;;6106447;23;20335;-66
2023/06/16 09:22:25;;;;;;;6.18;2.80;;;22.60;99.90;;;;;;6111514;23;20490;-66
2023/06/16 09:24:59;;;;;;;4.13;2.55;;;22.60;99.90;;;;;;6111258;23;20016;-66
2023/06/16 09:27:45;;;;;;;3.00;2.35;;;22.60;99.90;;;;;;6110148;23;20109;-66
2023/06/16 09:30:13;;;;;;;2.88;2.67;;;22.70;99.90;;;;;;6107206;23;20029;-66
2023/06/16 09:32:39;;;;;;;3.00;2.70;;;22.90;99.90;;;;;;6107464;23;20020;-66
2023/06/16 09:35:27;;;;;;;2.70;2.50;;;23.10;99.90;;;;;;6109794;23;20598;-66
2023/06/16 09:37:56;;;;;;;2.50;2.20;;;23.20;99.90;;;;;;6105953;23;20025;-66
2023/06/16 09:40:30;;;;;;;3.38;2.70;;;23.00;99.90;;;;;;6108857;23;20014;-66
2023/06/16 09:42:58;;;;;;;4.85;2.92;;;22.90;99.90;;;;;;6107919;23;20002;-66
2023/06/16 09:45:29;;;;;;;3.58;2.78;;;23.00;99.90;;;;;;6106437;23;20703;-66
2023/06/16 09:47:56;;;;;;;2.78;2.50;;;23.00;99.90;;;;;;6109120;23;20017;-66
2023/06/16 09:50:25;;;;;;;2.90;2.70;;;23.00;99.90;;;;;;6112502;23;20090;-66
2023/06/16 09:52:53;;;;;;;3.85;3.10;;;23.00;99.90;;;;;;6110417;23;20002;-66
2023/06/16 09:55:18;;;;;;;3.00;2.70;;;23.00;98.90;;;;;;6110912;23;20693;-66
2023/06/16 09:57:46;;;;;;;3.38;2.50;;;23.00;99.00;;;;;;6109403;23;20013;-67
2023/06/16 10:00:16;;;;;;;4.70;2.97;;;23.00;99.90;;;;;;6108734;23;20014;-66
2023/06/16 10:02:43;;;;;;;4.95;2.50;;;23.00;99.90;;;;;;6111070;23;20006;-66
2023/06/16 10:05:10;;;;;;;3.00;2.40;;;23.20;99.90;;;;;;6110197;23;20013;-66
2023/06/16 10:07:40;;;;;;;2.60;2.40;;;23.20;98.10;;;;;;6111587;23;20113;-66
2023/06/16 10:10:10;;;;;;;2.95;2.70;;;23.20;97.30;;;;;;6113801;23;20013;-66
2023/06/16 10:12:36;;;;;;;3.95;2.72;;;23.20;98.30;;;;;;6112945;23;20010;-67
2023/06/16 10:15:03;;;;;;;2.42;2.22;;;23.30;99.70;;;;;;6110421;23;20002;-66
2023/06/16 10:17:31;;;;;;;2.92;2.70;;;23.30;96.40;;;;;;6112729;23;20013;-66
2023/06/16 10:19:57;;;;;;;3.15;2.42;;;23.20;97.70;;;;;;6111865;23;20020;-66
2023/06/16 10:22:24;;;;;;;2.67;2.45;;;23.20;96.90;;;;;;6112596;23;20097;-67
2023/06/16 10:24:50;;;;;;;3.85;2.70;;;23.10;96.70;;;;;;6109929;23;20141;-66
2023/06/16 10:27:17;;;;;;;2.85;2.50;;;23.00;97.10;;;;;;6112728;23;20022;-66
2023/06/16 10:29:46;;;;;;;3.13;2.70;;;22.90;97.30;;;;;;6109686;23;20014;-66
2023/06/16 10:32:12;;;;;;;2.95;2.65;;;22.90;98.80;;;;;;6110190;23;20093;-66
2023/06/16 10:34:51;;;;;;;3.65;2.67;;;23.00;99.00;;;;;;6114572;23;20048;-66
2023/06/16 10:37:21;;;;;;;3.15;2.70;;;23.20;99.80;;;;;;6113604;23;20751;-66
2023/06/16 10:39:46;;;;;;;2.63;2.42;;;23.30;99.60;;;;;;6112610;23;20018;-66
2023/06/16 10:42:13;;;;;;;2.72;2.53;;;23.40;99.70;;;;;;6113840;23;20451;-66
2023/06/16 10:44:40;;;;;;;3.95;2.30;;;23.40;99.40;;;;;;6111887;23;20006;-66
2023/06/16 10:47:08;;;;;;;4.85;2.50;;;23.40;99.30;;;;;;6113851;23;20320;-66
2023/06/16 10:49:46;;;;;;;2.35;2.08;;;23.40;98.60;;;;;;6114092;23;20024;-66
2023/06/16 10:52:50;;;;;;;2.90;2.60;;;23.40;97.20;;;;;;6111670;23;20006;-66
2023/06/16 10:55:25;;;;;;;2.88;2.67;;;23.40;96.80;;;;;;6113794;23;20013;-66
2023/06/16 10:58:19;;;;;;;2.83;2.17;;;23.40;97.70;;;;;;6112851;23;20037;-66
2023/06/16 11:00:57;;;;;;;2.85;2.47;;;23.40;97.20;;;;;;6114753;23;20026;-66
2023/06/16 11:03:22;;;;;;;2.92;2.70;;;23.40;97.50;;;;;;6111718;23;20040;-66
2023/06/16 11:05:58;;;;;;;3.67;2.72;;;23.40;97.10;;;;;;6113733;23;20041;-66
2023/06/16 11:08:24;;;;;;;2.55;2.35;;;23.40;98.10;;;;;;6116031;23;20002;-67
2023/06/16 11:11:05;;;;;;;3.00;2.60;;;23.40;97.80;;;;;;6112265;23;20065;-67
2023/06/16 11:13:35;;;;;;;2.87;2.67;;;23.40;97.60;;;;;;6112323;23;20391;-67
2023/06/16 11:16:02;;;;;;;5.38;2.33;;;23.40;97.60;;;;;;6114281;23;20248;-67
2023/06/16 11:18:31;;;;;;;2.90;2.63;;;23.50;97.30;;;;;;6114919;23;20009;-67
2023/06/16 11:21:01;;;;;;;3.28;2.40;;;23.50;96.00;;;;;;6114539;23;20030;-67
2023/06/16 11:23:27;;;;;;;2.90;2.70;;;23.40;98.30;;;;;;6112422;23;20017;-67
2023/06/16 11:26:01;;;;;;;2.97;2.63;;;23.40;98.90;;;;;;6111718;23;20001;-67
2023/06/16 11:28:27;;;;;;;2.92;2.65;;;23.50;97.40;;;;;;6114454;23;20732;-67
2023/06/16 11:30:54;;;;;;;2.63;2.42;;;23.60;96.00;;;;;;6113830;23;20006;-66
2023/06/16 11:33:21;;;;;;;3.40;2.55;;;23.60;95.90;;;;;;6114553;23;20006;-67
2023/06/16 11:35:47;;;;;;;4.32;2.50;;;23.70;97.60;;;;;;6114888;23;20037;-67
2023/06/16 11:38:14;;;;;;;3.90;2.53;;;23.80;98.60;;;;;;6115085;23;20149;-66
2023/06/16 11:40:41;;;;;;;3.55;2.85;;;24.00;98.10;;;;;;6113393;23;20125;-67
2023/06/16 11:43:07;;;;;;;9.18;2.40;;;24.00;98.00;;;;;;6113341;23;20010;-66
2023/06/16 11:48:13;;;;;;;3.08;2.78;;;23.90;96.50;;;;;;6122708;23;20032;-66
2023/06/16 11:50:40;;;;;;;4.05;2.95;;;23.80;97.00;;;;;;6111091;23;20682;-66
2023/06/16 11:53:05;;;;;;;3.78;2.53;;;23.80;96.50;;;;;;6113084;23;20032;-66
2023/06/16 11:55:31;;;;;;;2.60;2.40;;;23.90;96.10;;;;;;6113382;23;20041;-67
2023/06/16 11:57:57;;;;;;;4.32;2.88;;;23.90;95.50;;;;;;6114734;23;20005;-67
2023/06/16 12:00:23;;;;;;;2.90;2.70;;;24.10;94.90;;;;;;6114842;23;20005;-67
2023/06/16 12:02:50;;;;;;;3.10;2.60;;;24.20;96.30;;;;;;6112859;23;20344;-66
2023/06/16 12:05:17;;;;;;;2.38;2.17;;;24.30;94.60;;;;;;6111791;23;20009;-66
2023/06/16 12:07:43;;;;;;;2.95;2.67;;;24.20;94.40;;;;;;6112601;23;20013;-66
2023/06/16 12:10:09;;;;;;;3.80;2.65;;;24.20;94.80;;;;;;6113273;23;20002;-66
2023/06/16 12:12:42;;;;;;;2.97;2.67;;;24.30;95.00;;;;;;6112021;23;20513;-66
2023/06/16 12:15:08;;;;;;;2.65;2.22;;;24.20;95.40;;;;;;6113301;23;20013;-66
2023/06/16 12:17:34;;;;;;;3.13;2.67;;;24.30;95.10;;;;;;6111473;23;20013;-66
2023/06/16 12:20:04;;;;;;;5.85;2.50;;;24.20;95.80;;;;;;6111537;23;20403;-64
2023/06/16 12:22:38;;;;;;;2.90;2.70;;;24.20;95.20;;;;;;6112985;23;20077;-65
2023/06/16 12:25:10;;;;;;;4.25;3.10;;;24.20;97.30;;;;;;6112483;23;19998;-65
2023/06/16 12:27:36;;;;;;;4.95;2.78;;;24.30;97.90;;;;;;6086113;23;20361;-68
2023/06/16 12:30:03;;;;;;;5.90;2.58;;;24.40;97.40;;;;;;6112660;23;20006;-68
2023/06/16 12:32:33;;;;;;;4.88;2.72;;;24.50;97.00;;;;;;6111684;23;20124;-68
2023/06/16 12:35:00;;;;;;;2.95;2.65;;;24.60;98.90;;;;;;6109819;23;20029;-70
2023/06/16 12:37:27;;;;;;;2.67;2.45;;;24.70;96.60;;;;;;6113239;23;19998;-74
2023/06/16 12:39:57;;;;;;;5.93;2.95;;;24.70;97.50;;;;;;6112134;23;20495;-73
2023/06/16 12:42:29;;;;;;;5.90;2.70;;;24.70;97.40;;;;;;6085155;23;20024;-71
2023/06/16 12:44:59;;;;;;;2.88;2.67;;;24.70;97.40;;;;;;6113044;23;19998;-70
2023/06/16 12:47:25;;;;;;;3.00;2.80;;;24.70;98.00;;;;;;6113464;23;20017;-69
2023/06/16 12:49:52;;;;;;;3.58;3.20;;;24.80;98.20;;;;;;6109276;23;20001;-63